Time;durP1;ratioP1;P1;durP2;ratioP2;P2;SDS_P1;SDS_P2;PMS_P1;PMS_P2;Temp;Humidity;BMP_temperature;BMP_pressure;BME280_temperature;BME280_humidity;BME280_pressure;Samples;Min_cycle;Max_cycle;Signal;HPM_P1;HPM_P2
2022/06/25 00:00:58;;;;;;;17.40;15.23;;;18.70;99.90;;;;;;5048685;28;20044;-63
2022/06/25 00:03:24;;;;;;;16.73;14.45;;;18.60;99.90;;;;;;5051386;28;20032;-63
2022/06/25 00:05:50;;;;;;;18.45;15.23;;;18.60;99.90;;;;;;5049309;28;20067;-63
2022/06/25 00:08:15;;;;;;;16.88;14.88;;;18.60;99.90;;;;;;5050679;28;20469;-63
2022/06/25 00:10:42;;;;;;;16.38;14.68;;;18.50;99.90;;;;;;5044376;28;20037;-63
2022/06/25 00:13:07;;;;;;;16.02;14.20;;;18.50;99.90;;;;;;5049844;28;20454;-63
2022/06/25 00:15:33;;;;;;;14.77;13.27;;;18.60;99.90;;;;;;5030407;28;20059;-64
2022/06/25 00:17:59;;;;;;;16.05;13.38;;;18.50;99.90;;;;;;5045267;28;20072;-63
2022/06/25 00:20:25;;;;;;;14.82;13.32;;;18.50;99.90;;;;;;5048774;28;20041;-64
2022/06/25 00:22:50;;;;;;;15.93;13.05;;;18.50;99.90;;;;;;5026650;28;20059;-63
2022/06/25 00:25:16;;;;;;;16.38;13.32;;;18.50;99.90;;;;;;5048754;28;20044;-64
2022/06/25 00:27:42;;;;;;;15.45;13.93;;;18.40;99.90;;;;;;5047042;28;20386;-64
2022/06/25 00:30:08;;;;;;;19.15;14.60;;;18.40;99.90;;;;;;5048343;28;20033;-64
2022/06/25 00:32:35;;;;;;;16.73;14.82;;;18.40;99.90;;;;;;5035406;28;20060;-64
2022/06/25 00:35:02;;;;;;;15.18;13.63;;;18.40;99.90;;;;;;5048731;28;20037;-64
2022/06/25 00:37:28;;;;;;;15.68;13.95;;;18.30;99.90;;;;;;5047456;28;20136;-64
2022/06/25 00:39:53;;;;;;;14.98;13.57;;;18.30;99.90;;;;;;5044445;28;20053;-63
2022/06/25 00:42:19;;;;;;;15.50;13.73;;;18.30;99.90;;;;;;5047625;28;20049;-64
2022/06/25 00:44:45;;;;;;;14.63;12.98;;;18.20;99.90;;;;;;5030882;28;20048;-65
2022/06/25 00:47:13;;;;;;;15.23;13.73;;;18.20;99.90;;;;;;5048777;28;20029;-64
2022/06/25 00:49:39;;;;;;;14.95;13.35;;;18.10;99.90;;;;;;5048526;28;20052;-64
2022/06/25 00:52:11;;;;;;;14.82;13.25;;;18.20;99.90;;;;;;5028368;28;20052;-64
2022/06/25 00:54:39;;;;;;;15.10;13.50;;;18.20;99.90;;;;;;5046845;28;20051;-64
2022/06/25 00:57:06;;;;;;;15.38;13.77;;;18.20;99.90;;;;;;5029621;28;20052;-64
2022/06/25 00:59:41;;;;;;;14.43;12.77;;;18.20;99.90;;;;;;5038299;28;20037;-64
2022/06/25 01:02:07;;;;;;;14.73;13.15;;;18.10;99.90;;;;;;5046653;28;20094;-64
2022/06/25 01:04:33;;;;;;;14.32;12.93;;;18.10;99.90;;;;;;5047895;28;20099;-64
2022/06/25 01:06:59;;;;;;;15.38;13.73;;;18.00;99.90;;;;;;5027916;28;20032;-64
2022/06/25 01:09:25;;;;;;;14.95;13.45;;;17.90;99.90;;;;;;5047630;28;20037;-64
2022/06/25 01:11:51;;;;;;;14.85;13.40;;;18.00;99.90;;;;;;5046033;28;20037;-64
2022/06/25 01:14:17;;;;;;;13.85;12.48;;;17.90;99.90;;;;;;5045087;28;20125;-64
2022/06/25 01:16:43;;;;;;;14.60;13.07;;;18.00;99.90;;;;;;5043546;28;20108;-64
2022/06/25 01:19:11;;;;;;;15.40;12.23;;;17.90;99.90;;;;;;5047419;28;20129;-64
2022/06/25 01:21:37;;;;;;;16.50;13.05;;;17.80;99.90;;;;;;5044327;28;20053;-63
2022/06/25 01:24:06;;;;;;;14.73;12.35;;;17.80;99.90;;;;;;5044406;28;20037;-64
2022/06/25 01:26:36;;;;;;;13.30;11.88;;;17.80;99.90;;;;;;5046303;28;20422;-63
2022/06/25 01:29:03;;;;;;;14.60;11.75;;;17.80;99.90;;;;;;5030294;28;20041;-64
2022/06/25 01:31:29;;;;;;;13.55;11.85;;;17.70;99.90;;;;;;5047198;28;20071;-63
2022/06/25 01:33:56;;;;;;;19.67;11.70;;;17.70;99.90;;;;;;5045651;28;20032;-64
2022/06/25 01:36:21;;;;;;;12.60;11.40;;;17.70;99.90;;;;;;5045099;28;20043;-64
2022/06/25 01:38:47;;;;;;;12.10;10.05;;;17.50;99.90;;;;;;5030221;28;20041;-64
2022/06/25 01:41:12;;;;;;;11.50;10.40;;;17.70;99.90;;;;;;5046978;28;20120;-64
2022/06/25 01:43:39;;;;;;;12.93;11.63;;;17.70;99.90;;;;;;5046823;28;20120;-64
2022/06/25 01:46:06;;;;;;;12.02;10.70;;;17.70;99.90;;;;;;5045841;28;20072;-64
2022/06/25 01:48:32;;;;;;;12.73;10.73;;;17.70;99.90;;;;;;5046442;28;20068;-63
2022/06/25 01:50:57;;;;;;;11.77;10.60;;;17.60;99.90;;;;;;5048467;28;20366;-63
2022/06/25 01:53:23;;;;;;;11.90;10.27;;;17.60;99.90;;;;;;5046259;28;20174;-64
2022/06/25 01:55:49;;;;;;;10.85;9.73;;;17.60;99.90;;;;;;5046223;28;20043;-64
2022/06/25 01:58:15;;;;;;;10.55;9.55;;;17.60;99.90;;;;;;5045447;28;20056;-64
2022/06/25 02:00:41;;;;;;;10.13;9.10;;;17.60;99.90;;;;;;5031765;28;20322;-62
2022/06/25 02:03:07;;;;;;;10.60;8.93;;;17.60;99.90;;;;;;5045533;28;20037;-63
2022/06/25 02:08:18;;;;;;;12.07;9.48;;;17.70;99.90;;;;;;5047702;28;20037;-62
2022/06/25 02:10:47;;;;;;;10.20;9.20;;;17.60;99.90;;;;;;5034075;28;20053;-62
2022/06/25 02:13:13;;;;;;;11.15;9.38;;;17.60;99.90;;;;;;5047336;28;20116;-63
2022/06/25 02:15:40;;;;;;;11.15;10.00;;;17.60;99.90;;;;;;5049382;28;20052;-64
2022/06/25 02:18:05;;;;;;;10.75;9.63;;;17.60;99.90;;;;;;5046835;28;20118;-62
2022/06/25 02:20:31;;;;;;;10.07;8.80;;;17.50;99.90;;;;;;5034014;28;20053;-62
2022/06/25 02:22:57;;;;;;;9.82;8.82;;;17.60;99.90;;;;;;5030536;28;20057;-63
2022/06/25 02:25:23;;;;;;;9.75;8.82;;;17.50;99.90;;;;;;5019283;28;20092;-62
2022/06/25 02:27:49;;;;;;;11.52;9.90;;;17.50;99.90;;;;;;5029224;28;20037;-63
2022/06/25 02:30:14;;;;;;;9.45;8.50;;;17.40;99.90;;;;;;5031966;28;20359;-62
2022/06/25 02:32:40;;;;;;;10.02;8.95;;;17.50;99.90;;;;;;5025230;28;20801;-63
2022/06/25 02:35:06;;;;;;;10.98;8.55;;;17.50;99.90;;;;;;5029664;28;20037;-62
2022/06/25 02:37:32;;;;;;;10.30;8.48;;;17.50;99.90;;;;;;5011441;28;20451;-64
2022/06/25 02:39:57;;;;;;;9.27;8.38;;;17.50;99.90;;;;;;5029889;28;20113;-63
2022/06/25 02:42:23;;;;;;;10.68;8.75;;;17.50;99.90;;;;;;5030571;28;20037;-62
2022/06/25 02:44:49;;;;;;;9.35;8.32;;;17.40;99.90;;;;;;5029981;28;20029;-62
2022/06/25 02:47:14;;;;;;;10.48;7.95;;;17.40;99.90;;;;;;5031091;28;20041;-63
2022/06/25 02:49:41;;;;;;;9.32;8.27;;;17.40;99.90;;;;;;5031432;28;20068;-62
2022/06/25 02:52:07;;;;;;;8.65;7.53;;;17.40;99.90;;;;;;5006445;28;20045;-62
2022/06/25 02:54:32;;;;;;;10.43;7.43;;;17.40;99.90;;;;;;5032183;28;20045;-62
2022/06/25 02:59:42;;;;;;;;;;;17.40;99.90;;;;;;5033979;28;20614;-63
2022/06/25 03:02:08;;;;;;;8.32;7.40;;;17.40;99.90;;;;;;5034034;28;19929;-64
2022/06/25 03:04:35;;;;;;;9.45;7.95;;;17.40;99.90;;;;;;5035257;28;20057;-62
2022/06/25 03:07:01;;;;;;;8.10;7.18;;;17.40;99.90;;;;;;5030070;28;20112;-62
2022/06/25 03:09:26;;;;;;;10.80;7.45;;;17.30;99.90;;;;;;5032146;28;20129;-62
2022/06/25 03:11:52;;;;;;;8.55;7.65;;;17.30;99.90;;;;;;5030438;28;20344;-63
2022/06/25 03:14:18;;;;;;;8.18;7.13;;;17.40;99.90;;;;;;5034637;28;20124;-63
2022/06/25 03:16:44;;;;;;;9.48;7.15;;;17.30;99.90;;;;;;5017021;28;20059;-62
2022/06/25 03:19:10;;;;;;;9.70;7.68;;;17.30;99.90;;;;;;5032230;28;20137;-62
2022/06/25 03:21:36;;;;;;;8.02;7.22;;;17.30;99.90;;;;;;5014447;28;20478;-62
2022/06/25 03:24:03;;;;;;;9.30;7.15;;;17.30;99.90;;;;;;5033437;28;20105;-62
2022/06/25 03:26:29;;;;;;;11.40;7.50;;;17.30;99.90;;;;;;5034849;28;20037;-62
2022/06/25 03:28:55;;;;;;;7.93;6.90;;;17.30;99.90;;;;;;5027130;28;20083;-62
2022/06/25 03:31:21;;;;;;;8.60;7.70;;;17.30;99.90;;;;;;5030515;28;20045;-63
2022/06/25 03:33:48;;;;;;;11.40;8.23;;;17.30;99.90;;;;;;5017197;28;20048;-63
2022/06/25 03:36:13;;;;;;;8.40;7.40;;;17.30;99.90;;;;;;5031576;28;20103;-61
2022/06/25 03:38:39;;;;;;;7.43;6.57;;;17.30;99.90;;;;;;5013515;28;20124;-63
2022/06/25 03:43:49;;;;;;;8.23;7.43;;;17.40;99.90;;;;;;5033348;28;20041;-63
2022/06/25 03:46:15;;;;;;;8.30;7.10;;;17.40;99.90;;;;;;5034805;28;20064;-62
2022/06/25 03:48:41;;;;;;;8.50;7.60;;;17.40;99.90;;;;;;5031706;28;20056;-62
2022/06/25 03:51:06;;;;;;;8.65;7.75;;;17.40;99.90;;;;;;5035403;28;20041;-62
2022/06/25 03:53:32;;;;;;;7.80;7.00;;;17.40;99.90;;;;;;5009066;28;20147;-63
2022/06/25 03:55:59;;;;;;;9.63;7.70;;;17.40;99.90;;;;;;5031924;28;20107;-62
2022/06/25 03:58:24;;;;;;;9.93;7.82;;;17.40;99.90;;;;;;5027055;28;20125;-62
2022/06/25 04:00:50;;;;;;;9.73;7.78;;;17.40;99.90;;;;;;5029981;28;20109;-62
2022/06/25 04:03:16;;;;;;;8.00;7.00;;;17.40;99.90;;;;;;5014979;28;20116;-62
2022/06/25 04:05:41;;;;;;;8.88;7.30;;;17.40;99.90;;;;;;5021425;28;20053;-62
2022/06/25 04:08:07;;;;;;;8.30;7.38;;;17.50;99.90;;;;;;5028318;28;20091;-62
2022/06/25 04:10:33;;;;;;;9.50;7.65;;;17.40;99.90;;;;;;5025434;28;20034;-62
2022/06/25 04:12:58;;;;;;;10.00;7.57;;;17.50;99.90;;;;;;5020591;28;20050;-63
2022/06/25 04:15:24;;;;;;;9.40;7.18;;;17.50;99.90;;;;;;5027331;28;20049;-62
2022/06/25 04:17:50;;;;;;;8.15;7.35;;;17.50;99.90;;;;;;5028958;28;20056;-62
2022/06/25 04:20:16;;;;;;;8.48;6.80;;;17.50;99.90;;;;;;5046707;28;20061;-62
2022/06/25 04:22:41;;;;;;;7.57;6.72;;;17.50;99.90;;;;;;5051737;28;20045;-62
2022/06/25 04:25:07;;;;;;;8.35;7.20;;;17.50;99.90;;;;;;5056993;28;20083;-62
2022/06/25 04:30:18;;;;;;;8.88;6.82;;;17.60;99.90;;;;;;5048623;28;20064;-62
2022/06/25 04:32:43;;;;;;;9.15;6.57;;;17.50;99.90;;;;;;5053017;28;20450;-62
2022/06/25 04:35:09;;;;;;;7.40;6.38;;;17.60;99.90;;;;;;5035731;28;20040;-63
2022/06/25 04:37:35;;;;;;;8.93;6.78;;;17.60;99.90;;;;;;5053675;28;20045;-63
2022/06/25 04:40:00;;;;;;;7.07;6.32;;;17.70;99.90;;;;;;5050363;28;20370;-62
2022/06/25 04:42:26;;;;;;;8.73;5.95;;;17.80;99.90;;;;;;5051728;28;20040;-62
2022/06/25 04:44:52;;;;;;;11.15;6.80;;;17.70;99.90;;;;;;5035502;28;20048;-63
2022/06/25 04:47:17;;;;;;;7.25;6.10;;;17.80;99.90;;;;;;5050471;28;20029;-63
2022/06/25 04:49:43;;;;;;;8.55;6.53;;;17.90;99.90;;;;;;5055392;28;20033;-63
2022/06/25 04:52:09;;;;;;;7.70;6.35;;;17.90;99.90;;;;;;5053016;28;20040;-63
2022/06/25 04:54:34;;;;;;;8.13;6.78;;;18.00;99.90;;;;;;5049850;28;20370;-62
2022/06/25 04:57:00;;;;;;;6.65;5.55;;;18.00;99.90;;;;;;5053034;28;20354;-62
2022/06/25 04:59:26;;;;;;;7.68;6.28;;;18.40;99.90;;;;;;5055503;28;20036;-63
2022/06/25 05:01:53;;;;;;;10.48;6.00;;;18.70;99.90;;;;;;5050541;28;20048;-63
2022/06/25 05:04:19;;;;;;;7.72;5.80;;;19.10;99.90;;;;;;5055870;28;20033;-63
2022/06/25 05:06:45;;;;;;;7.93;6.07;;;19.70;99.90;;;;;;5047421;28;20032;-63
2022/06/25 05:09:11;;;;;;;6.40;5.13;;;20.60;99.90;;;;;;5050082;28;20366;-62
2022/06/25 05:11:37;;;;;;;7.88;4.93;;;21.50;99.90;;;;;;5048291;28;20049;-63
2022/06/25 05:14:03;;;;;;;6.65;4.68;;;22.30;99.90;;;;;;5044031;28;20414;-65
2022/06/25 05:16:29;;;;;;;8.10;4.70;;;22.90;99.90;;;;;;5051890;28;20365;-63
2022/06/25 05:18:54;;;;;;;7.55;4.97;;;23.40;99.90;;;;;;5032374;28;20048;-63
2022/06/25 05:21:20;;;;;;;7.07;4.60;;;24.00;99.90;;;;;;5034574;28;20051;-63
2022/06/25 05:23:46;;;;;;;6.47;4.55;;;24.40;99.90;;;;;;5042888;28;20513;-63
2022/06/25 05:26:11;;;;;;;5.70;4.50;;;24.60;99.90;;;;;;5041729;28;20033;-63
2022/06/25 05:28:37;;;;;;;8.20;4.38;;;24.80;99.90;;;;;;5051524;28;20116;-63
2022/06/25 05:31:03;;;;;;;6.68;4.90;;;25.10;99.90;;;;;;5030266;28;20037;-63
2022/06/25 05:33:29;;;;;;;7.72;4.60;;;25.20;99.90;;;;;;5018742;28;20076;-63
2022/06/25 05:35:54;;;;;;;8.90;4.90;;;25.10;99.90;;;;;;5049973;28;20352;-64
2022/06/25 05:38:20;;;;;;;6.32;4.10;;;25.20;99.90;;;;;;5048968;28;20091;-64
2022/06/25 05:40:47;;;;;;;5.63;4.05;;;25.40;99.90;;;;;;5051729;28;20033;-63
2022/06/25 05:43:14;;;;;;;7.55;4.18;;;25.70;99.90;;;;;;5016881;28;20106;-64
2022/06/25 05:45:39;;;;;;;4.72;3.63;;;25.90;99.90;;;;;;5054674;28;20037;-63
2022/06/25 05:48:06;;;;;;;8.23;4.30;;;26.20;99.90;;;;;;5051869;28;20102;-65
2022/06/25 05:50:31;;;;;;;5.82;4.30;;;26.10;99.90;;;;;;5049610;28;20469;-63
2022/06/25 05:52:58;;;;;;;6.75;3.97;;;25.90;99.90;;;;;;5041438;28;20087;-63
2022/06/25 05:55:24;;;;;;;7.95;4.40;;;25.80;99.90;;;;;;5049496;28;20494;-63
2022/06/25 05:57:51;;;;;;;7.38;4.40;;;26.00;99.90;;;;;;5046275;28;20040;-63
2022/06/25 06:00:17;;;;;;;4.93;3.92;;;26.10;99.90;;;;;;5031983;28;20068;-64
2022/06/25 06:02:43;;;;;;;7.25;3.92;;;26.50;99.90;;;;;;5032997;28;20037;-63
2022/06/25 06:05:09;;;;;;;6.13;3.75;;;26.80;99.90;;;;;;5047113;28;20030;-63
2022/06/25 06:07:35;;;;;;;6.05;3.45;;;27.20;99.90;;;;;;5047121;28;20039;-64
2022/06/25 06:10:01;;;;;;;3.88;3.10;;;27.50;99.90;;;;;;5048878;28;20037;-63
2022/06/25 06:12:27;;;;;;;6.78;3.60;;;27.60;99.90;;;;;;5029416;28;20159;-63
2022/06/25 06:14:53;;;;;;;6.22;3.15;;;27.80;99.90;;;;;;5037404;28;20315;-63
2022/06/25 06:17:18;;;;;;;5.50;3.40;;;27.90;99.90;;;;;;5049105;28;20052;-63
2022/06/25 06:19:44;;;;;;;6.28;3.50;;;28.00;99.90;;;;;;5045906;28;20052;-63
2022/06/25 06:22:10;;;;;;;5.20;2.60;;;28.20;99.90;;;;;;5051631;28;20032;-63
2022/06/25 06:24:35;;;;;;;7.35;3.00;;;28.20;99.90;;;;;;5049075;28;20154;-63
2022/06/25 06:27:01;;;;;;;6.90;2.83;;;28.30;99.90;;;;;;5054653;28;20437;-63
2022/06/25 06:29:29;;;;;;;5.65;3.22;;;28.00;99.80;;;;;;5051326;28;20036;-63
2022/06/25 06:31:54;;;;;;;3.78;2.95;;;27.40;99.90;;;;;;5054460;28;20033;-63
2022/06/25 06:34:20;;;;;;;6.22;2.85;;;27.30;99.90;;;;;;5011290;28;20480;-65
2022/06/25 06:36:46;;;;;;;5.60;3.25;;;27.60;99.90;;;;;;5053375;28;20033;-63
2022/06/25 06:39:12;;;;;;;5.90;2.58;;;27.50;99.70;;;;;;5054121;28;20033;-64
2022/06/25 06:41:38;;;;;;;5.20;2.60;;;27.80;99.90;;;;;;5054378;28;20045;-63
2022/06/25 06:44:04;;;;;;;4.63;2.60;;;27.80;99.90;;;;;;5055332;28;20049;-63
2022/06/25 06:46:30;;;;;;;5.45;2.30;;;27.50;99.90;;;;;;5035157;28;20133;-64
2022/06/25 06:48:56;;;;;;;3.72;2.20;;;27.20;99.90;;;;;;5049552;28;20079;-63
2022/06/25 06:51:22;;;;;;;4.88;2.03;;;27.20;99.90;;;;;;5052165;28;20461;-63
2022/06/25 06:53:47;;;;;;;5.60;2.45;;;27.00;99.80;;;;;;5056537;28;20033;-63
2022/06/25 06:56:13;;;;;;;4.90;2.40;;;27.00;99.90;;;;;;5054607;28;20115;-63
2022/06/25 06:58:38;;;;;;;6.28;2.30;;;27.10;99.90;;;;;;5054034;28;20053;-63
2022/06/25 07:01:04;;;;;;;6.35;2.60;;;27.30;99.90;;;;;;5054989;28;20033;-63
2022/06/25 07:03:30;;;;;;;5.55;2.50;;;27.30;99.90;;;;;;5056183;28;20036;-63
2022/06/25 07:05:56;;;;;;;4.90;3.00;;;26.70;99.90;;;;;;5056451;28;20043;-63
2022/06/25 07:08:22;;;;;;;4.63;2.28;;;26.40;99.90;;;;;;5037595;28;20041;-62
2022/06/25 07:10:48;;;;;;;4.18;2.30;;;25.90;99.90;;;;;;5048606;28;20037;-62
2022/06/25 07:13:16;;;;;;;4.28;2.15;;;25.80;99.90;;;;;;5032914;28;20107;-61
2022/06/25 07:15:42;;;;;;;6.65;2.15;;;25.70;99.90;;;;;;5043608;28;20041;-62
2022/06/25 07:18:08;;;;;;;5.82;2.58;;;25.50;99.90;;;;;;5051518;28;20029;-60
2022/06/25 07:20:34;;;;;;;3.58;2.10;;;25.50;99.90;;;;;;5051577;28;20459;-61
2022/06/25 07:23:00;;;;;;;3.85;2.42;;;25.50;99.90;;;;;;5052822;28;20037;-61
2022/06/25 07:25:26;;;;;;;4.13;2.28;;;25.50;99.90;;;;;;5043162;28;20057;-63
2022/06/25 07:27:51;;;;;;;4.65;2.67;;;25.50;99.90;;;;;;5053184;28;20450;-61
2022/06/25 07:30:17;;;;;;;5.43;2.42;;;25.40;99.90;;;;;;5054074;28;20086;-63
2022/06/25 07:32:43;;;;;;;4.22;2.20;;;25.40;99.90;;;;;;5050585;28;20091;-61
2022/06/25 07:35:09;;;;;;;3.70;2.67;;;25.50;99.90;;;;;;5040635;28;20083;-62
2022/06/25 07:37:34;;;;;;;5.78;2.10;;;25.60;99.90;;;;;;5053655;28;20083;-63
2022/06/25 07:40:00;;;;;;;7.03;2.22;;;25.70;99.90;;;;;;5052937;28;20043;-62
2022/06/25 07:42:26;;;;;;;5.63;2.00;;;25.70;99.90;;;;;;5052037;28;20051;-61
2022/06/25 07:44:52;;;;;;;3.90;2.00;;;25.70;99.90;;;;;;5051642;28;20041;-60
2022/06/25 07:47:18;;;;;;;6.53;2.05;;;25.80;99.90;;;;;;5051210;28;20029;-61
2022/06/25 07:52:28;;;;;;;7.93;2.47;;;25.60;99.90;;;;;;5049053;28;20080;-61
2022/06/25 07:54:54;;;;;;;4.05;1.90;;;25.80;99.90;;;;;;5027691;28;20497;-61
2022/06/25 07:57:20;;;;;;;5.38;2.10;;;25.80;99.90;;;;;;5022621;28;20060;-62
2022/06/25 07:59:45;;;;;;;5.50;2.13;;;25.90;99.90;;;;;;5048828;28;20045;-61
2022/06/25 08:02:11;;;;;;;4.00;1.70;;;25.90;99.90;;;;;;5046305;28;20120;-61
2022/06/25 08:04:37;;;;;;;6.30;2.25;;;25.80;99.90;;;;;;5030087;28;20454;-62
2022/06/25 08:07:03;;;;;;;4.38;2.20;;;25.60;99.90;;;;;;5047598;28;20029;-63
2022/06/25 08:09:34;;;;;;;5.20;2.35;;;25.80;99.90;;;;;;5043934;28;20056;-62
2022/06/25 08:11:59;;;;;;;6.07;2.33;;;25.80;99.90;;;;;;5035816;28;20553;-61
2022/06/25 08:14:25;;;;;;;3.42;2.10;;;25.70;99.90;;;;;;5050660;28;20036;-61
2022/06/25 08:16:51;;;;;;;3.38;1.98;;;25.50;99.90;;;;;;5035388;28;20634;-61
2022/06/25 08:19:16;;;;;;;5.05;2.50;;;25.50;99.90;;;;;;5046810;28;20049;-62
2022/06/25 08:21:42;;;;;;;4.30;2.13;;;25.40;99.90;;;;;;5051607;28;20060;-61
2022/06/25 08:24:08;;;;;;;2.88;1.80;;;25.50;99.90;;;;;;5053258;28;20045;-61
2022/06/25 08:26:33;;;;;;;4.55;1.98;;;25.50;99.90;;;;;;5050677;28;20036;-61
2022/06/25 08:28:59;;;;;;;4.05;2.45;;;25.40;99.90;;;;;;5050172;28;20095;-61
2022/06/25 08:31:25;;;;;;;3.28;2.00;;;25.30;99.90;;;;;;5050993;28;20072;-62
2022/06/25 08:33:50;;;;;;;4.47;1.92;;;25.40;99.90;;;;;;5028811;28;20052;-62
2022/06/25 08:36:16;;;;;;;4.43;2.13;;;25.50;99.90;;;;;;5047453;28;20029;-61
2022/06/25 08:38:42;;;;;;;7.78;2.20;;;25.60;99.90;;;;;;5049995;28;20044;-61
2022/06/25 08:41:08;;;;;;;3.25;1.90;;;25.70;99.90;;;;;;5048949;28;20032;-62
2022/06/25 08:43:34;;;;;;;7.43;4.30;;;25.70;99.90;;;;;;5046133;28;20052;-61
2022/06/25 08:45:59;;;;;;;4.50;2.03;;;25.90;99.90;;;;;;5050529;28;20033;-62
2022/06/25 08:48:31;;;;;;;4.32;1.85;;;25.90;99.90;;;;;;5028421;28;20127;-61
2022/06/25 08:50:58;;;;;;;3.97;2.03;;;25.90;99.90;;;;;;5047255;28;20041;-61
2022/06/25 08:53:28;;;;;;;3.08;1.80;;;26.00;99.90;;;;;;5049241;28;20052;-62
2022/06/25 08:55:55;;;;;;;3.83;1.42;;;26.00;99.90;;;;;;5044309;28;20072;-61
2022/06/25 08:58:21;;;;;;;2.63;1.30;;;26.20;99.90;;;;;;5030936;28;20046;-62
2022/06/25 09:00:46;;;;;;;2.33;1.75;;;26.30;99.90;;;;;;5051444;28;20124;-62
2022/06/25 09:03:12;;;;;;;3.72;1.38;;;26.50;99.90;;;;;;5048927;28;20114;-62
2022/06/25 09:05:43;;;;;;;4.25;1.67;;;26.50;99.90;;;;;;5048963;28;20037;-62
2022/06/25 09:08:13;;;;;;;5.85;1.63;;;26.50;99.90;;;;;;5048689;28;20044;-63
2022/06/25 09:10:41;;;;;;;3.33;1.50;;;26.60;99.90;;;;;;5051252;28;20102;-62
2022/06/25 09:13:09;;;;;;;2.00;1.23;;;26.60;99.90;;;;;;5049880;28;20048;-61
2022/06/25 09:15:40;;;;;;;3.80;1.50;;;26.50;99.90;;;;;;5050835;28;20045;-61
2022/06/25 09:18:17;;;;;;;2.30;1.50;;;26.60;99.90;;;;;;5048534;28;20045;-62
2022/06/25 09:21:07;;;;;;;2.80;1.60;;;26.50;99.90;;;;;;5050712;28;20516;-61
2022/06/25 09:23:54;;;;;;;1.38;1.08;;;26.60;99.90;;;;;;5047128;28;20041;-62
2022/06/25 09:26:20;;;;;;;2.05;1.23;;;26.80;99.90;;;;;;5045539;28;20428;-62
2022/06/25 09:28:46;;;;;;;2.55;1.10;;;26.80;99.90;;;;;;5050826;28;20037;-61
2022/06/25 09:31:12;;;;;;;4.20;1.73;;;26.80;99.90;;;;;;5048079;28;20033;-61
2022/06/25 09:33:40;;;;;;;4.18;2.00;;;26.60;99.90;;;;;;5051058;28;20059;-60
2022/06/25 09:36:09;;;;;;;1.42;1.10;;;26.40;99.90;;;;;;5044845;28;20084;-61
2022/06/25 09:38:47;;;;;;;3.13;1.52;;;26.40;99.90;;;;;;5048406;28;20052;-61
2022/06/25 09:41:13;;;;;;;2.42;1.20;;;26.50;99.90;;;;;;5048342;28;20501;-62
2022/06/25 09:43:41;;;;;;;4.15;1.50;;;26.60;99.90;;;;;;5047317;28;20048;-60
2022/06/25 09:46:07;;;;;;;7.00;1.40;;;26.80;99.90;;;;;;5050254;28;20043;-60
2022/06/25 09:48:35;;;;;;;2.65;1.42;;;27.00;99.90;;;;;;5046770;28;20374;-61
2022/06/25 09:51:19;;;;;;;3.90;1.35;;;26.90;99.60;;;;;;5045661;28;20043;-60
2022/06/25 09:53:54;;;;;;;2.25;1.30;;;26.70;99.70;;;;;;5046259;28;20614;-61
2022/06/25 09:56:25;;;;;;;2.83;1.60;;;26.60;99.80;;;;;;5038317;28;20029;-61
2022/06/25 09:58:53;;;;;;;1.95;1.20;;;26.50;99.90;;;;;;5036310;28;20038;-60
2022/06/25 10:01:21;;;;;;;6.07;1.88;;;26.40;99.90;;;;;;5043727;28;20485;-62
2022/06/25 10:03:47;;;;;;;2.03;1.30;;;26.30;99.90;;;;;;5050454;28;20061;-61
2022/06/25 10:06:15;;;;;;;4.15;1.60;;;26.20;99.90;;;;;;5053444;28;20029;-61
2022/06/25 10:08:51;;;;;;;5.20;1.70;;;26.20;99.90;;;;;;5048099;28;20428;-60
2022/06/25 10:11:18;;;;;;;3.10;1.67;;;26.20;99.90;;;;;;5029080;28;20803;-63
2022/06/25 10:13:45;;;;;;;2.85;1.50;;;26.00;99.90;;;;;;5052392;28;20048;-61
2022/06/25 10:16:11;;;;;;;2.83;1.30;;;26.00;99.90;;;;;;5047711;28;20347;-62
2022/06/25 10:18:38;;;;;;;2.60;1.50;;;25.90;99.90;;;;;;5051231;28;20037;-61
2022/06/25 10:21:04;;;;;;;2.78;1.40;;;25.70;99.90;;;;;;5053845;28;20048;-61
2022/06/25 10:23:30;;;;;;;2.53;1.60;;;25.60;99.90;;;;;;5054404;28;20049;-61
2022/06/25 10:25:56;;;;;;;5.60;1.73;;;25.60;99.90;;;;;;5049767;28;20065;-61
2022/06/25 10:28:28;;;;;;;3.30;1.75;;;25.60;99.90;;;;;;5052204;28;20089;-61
2022/06/25 10:30:57;;;;;;;4.27;2.20;;;25.70;99.90;;;;;;5052685;28;20025;-61
2022/06/25 10:33:29;;;;;;;3.10;1.80;;;25.80;99.90;;;;;;5035436;28;20651;-59
2022/06/25 10:35:57;;;;;;;2.65;1.65;;;25.80;99.90;;;;;;5049317;28;20472;-61
2022/06/25 10:38:24;;;;;;;5.00;1.80;;;25.70;99.90;;;;;;5048735;28;20060;-62
2022/06/25 10:40:58;;;;;;;3.67;1.75;;;25.60;99.90;;;;;;5047785;28;20405;-60
2022/06/25 10:43:49;;;;;;;5.18;1.80;;;25.40;99.90;;;;;;5052821;28;20073;-61
2022/06/25 10:46:31;;;;;;;6.50;1.92;;;25.30;99.90;;;;;;5035099;28;20048;-62
2022/06/25 10:49:05;;;;;;;2.97;1.30;;;25.00;99.90;;;;;;5051487;28;20037;-62
2022/06/25 10:51:47;;;;;;;4.07;1.67;;;24.90;99.90;;;;;;5034347;28;20477;-61
2022/06/25 10:54:14;;;;;;;4.70;1.67;;;24.60;99.90;;;;;;5051354;28;20029;-61
2022/06/25 10:56:44;;;;;;;3.72;1.92;;;24.40;99.90;;;;;;5049835;28;20037;-61
2022/06/25 10:59:31;;;;;;;9.10;2.13;;;24.20;99.90;;;;;;5051492;28;20072;-61
2022/06/25 11:02:24;;;;;;;5.53;2.10;;;24.10;99.90;;;;;;5038554;28;20041;-62
2022/06/25 11:04:54;;;;;;;5.40;2.25;;;23.80;99.90;;;;;;5051920;28;20076;-61
2022/06/25 11:07:23;;;;;;;6.20;2.45;;;23.60;99.90;;;;;;5051677;28;20052;-61
2022/06/25 11:09:54;;;;;;;3.75;2.38;;;23.40;99.90;;;;;;5053768;28;20408;-61
2022/06/25 11:12:21;;;;;;;5.20;2.45;;;23.30;99.90;;;;;;5046542;28;20037;-61
2022/06/25 11:15:07;;;;;;;3.95;2.47;;;23.20;99.90;;;;;;5050096;28;20110;-61
2022/06/25 11:17:33;;;;;;;4.93;2.35;;;23.30;99.90;;;;;;5023269;28;20048;-61
2022/06/25 11:20:17;;;;;;;5.82;2.47;;;23.20;99.90;;;;;;5052487;28;20052;-61
2022/06/25 11:22:47;;;;;;;3.58;2.22;;;23.30;99.90;;;;;;5050602;28;20072;-61
2022/06/25 11:30:42;;;;;;;4.07;2.30;;;23.60;99.90;;;;;;5055149;28;20113;-62
2022/06/25 11:33:09;;;;;;;7.50;2.70;;;23.70;99.90;;;;;;5049605;28;20101;-61
2022/06/25 11:35:44;;;;;;;5.25;2.63;;;23.70;99.90;;;;;;5051182;28;20516;-61
2022/06/25 11:38:17;;;;;;;4.15;2.47;;;23.80;99.90;;;;;;5049684;28;20514;-62
2022/06/25 11:40:44;;;;;;;3.65;2.50;;;23.80;99.90;;;;;;5050312;28;20041;-61
2022/06/25 11:43:10;;;;;;;4.47;2.65;;;23.70;99.90;;;;;;5049324;28;20195;-60
2022/06/25 11:45:54;;;;;;;7.95;2.85;;;23.60;99.90;;;;;;5053449;28;20119;-61
2022/06/25 11:48:24;;;;;;;5.18;2.55;;;23.60;99.90;;;;;;5051732;28;20490;-61
2022/06/25 11:50:54;;;;;;;4.30;2.70;;;23.50;99.90;;;;;;5050542;28;20041;-62
2022/06/25 11:53:20;;;;;;;4.28;3.47;;;23.40;99.90;;;;;;5055632;28;20040;-63
2022/06/25 11:56:04;;;;;;;6.60;3.00;;;23.40;99.90;;;;;;5053350;28;20041;-61
2022/06/25 11:58:32;;;;;;;4.93;2.80;;;23.30;99.90;;;;;;5051956;28;20033;-62
2022/06/25 12:01:00;;;;;;;5.00;2.90;;;23.20;99.90;;;;;;5050251;28;20064;-61
2022/06/25 12:03:27;;;;;;;5.40;2.78;;;23.20;99.90;;;;;;5048252;28;20385;-62
2022/06/25 12:05:54;;;;;;;5.53;2.70;;;23.20;99.90;;;;;;5054555;28;20389;-61
2022/06/25 12:08:21;;;;;;;4.05;2.40;;;23.20;99.90;;;;;;5051799;28;20424;-61
2022/06/25 12:10:48;;;;;;;4.13;2.40;;;23.30;99.90;;;;;;5051335;28;20044;-62
2022/06/25 12:13:15;;;;;;;4.60;2.45;;;23.30;99.90;;;;;;5048765;28;20429;-62
2022/06/25 12:15:41;;;;;;;3.35;2.20;;;23.40;99.90;;;;;;5053097;28;20048;-61
2022/06/25 12:18:07;;;;;;;4.05;2.25;;;23.40;99.90;;;;;;5047556;28;20051;-61
2022/06/25 12:20:33;;;;;;;3.42;1.85;;;23.60;99.90;;;;;;5055237;28;20059;-61
2022/06/25 12:23:00;;;;;;;3.67;1.77;;;23.70;99.90;;;;;;5054924;28;20378;-62
2022/06/25 12:25:28;;;;;;;2.63;1.70;;;23.90;99.90;;;;;;5053764;28;20124;-62
2022/06/25 12:27:54;;;;;;;1.90;1.65;;;24.20;99.90;;;;;;5049095;28;20065;-62
2022/06/25 12:30:25;;;;;;;3.72;2.03;;;24.40;99.90;;;;;;5050504;28;20028;-62
2022/06/25 12:32:52;;;;;;;2.85;1.70;;;24.70;99.90;;;;;;5046337;28;20037;-62
2022/06/25 12:35:21;;;;;;;2.85;1.98;;;24.80;99.90;;;;;;5028329;28;20045;-62
2022/06/25 12:38:07;;;;;;;2.83;1.88;;;25.10;99.90;;;;;;5051419;28;20447;-64
2022/06/25 12:40:40;;;;;;;3.63;2.03;;;25.30;99.90;;;;;;5053815;28;20029;-63
2022/06/25 12:43:07;;;;;;;2.15;1.83;;;25.60;99.90;;;;;;5051776;28;20068;-62
2022/06/25 12:45:34;;;;;;;6.97;1.90;;;25.90;99.90;;;;;;5044844;28;20041;-63
2022/06/25 12:48:00;;;;;;;3.10;1.80;;;26.00;99.90;;;;;;5044555;28;20048;-63
2022/06/25 12:50:29;;;;;;;2.03;1.60;;;26.30;99.90;;;;;;5043736;28;20056;-63
2022/06/25 12:52:56;;;;;;;2.00;1.35;;;26.50;99.90;;;;;;5051387;28;20036;-64
2022/06/25 12:55:23;;;;;;;1.58;1.00;;;26.70;99.90;;;;;;5048810;28;20093;-63
2022/06/25 12:57:49;;;;;;;3.50;1.40;;;26.80;99.90;;;;;;5044682;28;20048;-63
2022/06/25 13:00:27;;;;;;;1.25;0.88;;;26.80;99.90;;;;;;5048367;28;20480;-62
2022/06/25 13:02:53;;;;;;;1.23;0.98;;;26.80;99.90;;;;;;5050506;28;20467;-64